Errol, New Hampshire
Current Conditions -  °F | °C
As of 6:52 AM on Friday 31 Oct 2014 (Local Time) from KBML Reporting Station
Overcast Overcast  
Wind Chill: 35°   Ceiling: 4600
Heat Index: 35°   Visibility: 10mi
Dew Point: 34°   Wind: 0mph
Humidity: 96%   Direction: NA
Pressure: 30.01"   Gusts: NA
Location:  44.79°N, 71.14°W
Report Text: KBML 311052Z AUTO 00000KT 10SM OVC046 02/01 A3001 RMK AO2 SLP173 T00170011
Loading
Personal Weather Stations






























Interactive Weather Map
Tropical Storm Tracking
New forecast layout! Learn more

10-Day Weather Forecast

Advertisements
Track Severe Weather on mobile